createdAt,value
2019-01-12T00:02:21.687Z,1.00
2019-01-12T00:07:31.001Z,1.00
2019-01-12T00:12:35.070Z,1.00
2019-01-12T00:17:40.405Z,0.90
2019-01-12T00:22:44.022Z,0.90
2019-01-12T00:27:47.626Z,1.10
2019-01-12T00:32:51.433Z,0.80
2019-01-12T00:37:55.039Z,0.80
2019-01-12T00:43:03.033Z,0.80
2019-01-12T00:48:06.695Z,0.70
2019-01-12T00:53:10.566Z,0.80
2019-01-12T00:58:17.155Z,1.20
2019-01-12T01:03:20.990Z,1.30
2019-01-12T01:08:36.171Z,1.40
2019-01-12T01:13:41.461Z,1.40
2019-01-12T01:18:45.087Z,1.30
2019-01-12T01:23:48.701Z,1.40
2019-01-12T01:28:54.374Z,1.30
2019-01-12T01:34:00.571Z,1.40
2019-01-12T01:39:07.006Z,1.60
2019-01-12T01:44:16.133Z,1.70
2019-01-12T01:49:19.745Z,1.60
2019-01-12T01:54:26.329Z,1.80
2019-01-12T01:59:33.488Z,1.80
2019-01-12T02:04:40.039Z,1.60
2019-01-12T02:09:46.384Z,1.60
2019-01-12T02:14:49.997Z,1.70
2019-01-12T02:19:55.263Z,1.90
2019-01-12T02:25:00.052Z,2.00
2019-01-12T02:30:16.299Z,1.90
2019-01-12T02:35:22.725Z,2.00
2019-01-12T02:40:29.239Z,2.30
2019-01-12T02:45:38.586Z,2.40
2019-01-12T02:50:51.975Z,2.50
2019-01-12T02:56:01.611Z,2.50
2019-01-12T03:01:06.932Z,2.80
2019-01-12T03:06:10.683Z,2.80
2019-01-12T03:11:20.354Z,2.60
2019-01-12T03:16:25.844Z,2.10
2019-01-12T03:21:29.786Z,2.10
2019-01-12T03:26:35.043Z,1.90
2019-01-12T03:31:38.643Z,2.00
2019-01-12T03:36:42.628Z,1.90
2019-01-12T03:41:52.181Z,2.00
2019-01-12T03:46:57.564Z,1.90
2019-01-12T03:52:03.939Z,2.10
2019-01-12T03:57:10.240Z,2.10
2019-01-12T04:02:16.786Z,2.30
2019-01-12T04:07:20.408Z,2.00
2019-01-12T04:12:25.650Z,1.90
2019-01-12T04:17:29.269Z,1.90
2019-01-12T04:22:32.886Z,2.00
2019-01-12T04:27:39.686Z,2.10
2019-01-12T04:32:46.604Z,2.20
2019-01-12T04:37:52.969Z,1.90
2019-01-12T04:43:02.350Z,2.00
2019-01-12T04:48:06.044Z,2.00
2019-01-12T04:53:12.387Z,1.90
2019-01-12T04:58:16.271Z,1.70
2019-01-12T05:03:21.855Z,1.80
2019-01-12T05:08:31.515Z,1.70
2019-01-12T05:13:36.748Z,1.80
2019-01-12T05:18:50.969Z,1.80
2019-01-12T05:23:54.583Z,1.60
2019-01-12T05:29:02.241Z,1.80
2019-01-12T05:34:07.854Z,1.90
2019-01-12T05:39:15.155Z,2.00
2019-01-12T05:44:21.774Z,1.90
2019-01-12T05:49:30.987Z,2.00
2019-01-12T05:54:34.602Z,1.80
2019-01-12T05:59:44.259Z,1.90
2019-01-12T06:04:48.121Z,1.80
2019-01-12T06:09:54.383Z,1.80
2019-01-12T06:14:59.649Z,1.90
2019-01-12T06:20:04.668Z,2.20
2019-01-12T06:25:14.322Z,2.40
2019-01-12T06:30:18.946Z,2.30
2019-01-12T06:35:22.879Z,2.50
2019-01-12T06:40:31.141Z,2.60
2019-01-12T06:45:35.892Z,2.70
2019-01-12T06:50:45.433Z,2.90
2019-01-12T06:55:49.453Z,2.90
2019-01-12T07:00:56.009Z,2.90
2019-01-12T07:06:02.322Z,2.60
2019-01-12T07:11:07.462Z,2.60
2019-01-12T07:16:11.135Z,2.80
2019-01-12T07:21:19.381Z,2.80
2019-01-12T07:26:33.445Z,2.80
2019-01-12T07:31:32.611Z,3.00
2019-01-12T07:36:36.498Z,2.90
2019-01-12T07:41:40.147Z,2.70
2019-01-12T07:46:46.704Z,2.50
2019-01-12T07:51:53.274Z,2.70
2019-01-12T07:56:57.462Z,2.80
2019-01-12T08:02:01.141Z,2.70
2019-01-12T08:07:05.733Z,2.80
2019-01-12T08:12:09.411Z,2.70
2019-01-12T08:17:15.798Z,2.70
2019-01-12T08:22:19.391Z,2.70
2019-01-12T08:27:23.003Z,3.00
2019-01-12T08:32:28.884Z,3.10
2019-01-12T08:37:33.288Z,2.90
2019-01-12T08:42:37.738Z,2.90
2019-01-12T08:47:41.504Z,3.00
2019-01-12T08:52:45.306Z,3.20
2019-01-12T08:57:49.066Z,3.00
2019-01-12T09:02:52.720Z,3.00
2019-01-12T09:07:56.558Z,3.00
2019-01-12T09:13:00.225Z,3.30
2019-01-12T09:18:08.505Z,3.30
2019-01-12T09:23:14.617Z,3.00
2019-01-12T09:28:18.222Z,3.20
2019-01-12T09:33:21.955Z,3.50
2019-01-12T09:38:25.621Z,3.60
2019-01-12T09:43:32.197Z,3.80
2019-01-12T09:48:36.738Z,3.40
2019-01-12T09:53:40.429Z,3.60
2019-01-12T09:58:49.996Z,3.90
2019-01-12T10:03:53.640Z,4.00
2019-01-12T10:08:57.262Z,4.20
2019-01-12T10:14:00.862Z,4.00
2019-01-12T10:19:06.980Z,3.80
2019-01-12T10:24:10.668Z,3.60
2019-01-12T10:29:15.884Z,3.50
2019-01-12T10:34:22.602Z,3.50
2019-01-12T10:39:26.225Z,3.60
2019-01-12T10:44:29.847Z,3.60
2019-01-12T10:49:36.573Z,3.80
2019-01-12T10:54:40.178Z,3.90
2019-01-12T10:59:44.915Z,4.00
2019-01-12T11:04:48.560Z,3.80
2019-01-12T11:09:54.890Z,3.60
2019-01-12T11:14:58.566Z,3.70
2019-01-12T11:20:02.453Z,3.70
2019-01-12T11:25:09.546Z,3.50
2019-01-12T11:30:20.492Z,3.60
2019-01-12T11:35:24.094Z,3.70
2019-01-12T11:40:27.921Z,3.40
2019-01-12T11:45:31.556Z,3.50
2019-01-12T11:50:35.180Z,3.40
2019-01-12T11:55:39.667Z,3.20
2019-01-12T12:00:43.314Z,3.20
2019-01-12T12:05:46.930Z,3.20
2019-01-12T12:10:50.542Z,3.30
2019-01-12T12:15:54.257Z,3.40
2019-01-12T12:21:00.851Z,3.30
2019-01-12T12:26:05.405Z,3.20
2019-01-12T12:31:09.602Z,3.20
2019-01-12T12:36:16.279Z,3.30
2019-01-12T12:41:19.908Z,3.10
2019-01-12T12:46:26.534Z,3.30
2019-01-12T12:51:30.162Z,3.40
2019-01-12T12:56:33.950Z,3.20
2019-01-12T13:01:38.687Z,3.20
2019-01-12T13:06:42.382Z,3.20
2019-01-12T13:11:53.107Z,3.30
2019-01-12T13:22:12.266Z,3.40
2019-01-12T13:27:16.225Z,3.50
2019-01-12T13:32:22.743Z,3.30
2019-01-12T13:37:26.350Z,3.40
2019-01-12T13:42:29.967Z,3.40
2019-01-12T13:47:33.604Z,3.60
2019-01-12T13:52:37.414Z,3.40
2019-01-12T13:57:47.449Z,3.50
2019-01-12T14:02:46.630Z,3.50
2019-01-12T14:07:56.111Z,3.40
2019-01-12T14:12:57.521Z,3.40
2019-01-12T14:18:02.744Z,3.50
2019-01-12T14:23:09.333Z,3.50
2019-01-12T14:28:12.939Z,3.50
2019-01-12T14:33:20.776Z,3.40
2019-01-12T14:38:24.381Z,3.60
2019-01-12T14:43:29.615Z,3.70
2019-01-12T14:48:33.211Z,3.70
2019-01-12T14:53:36.818Z,3.90
2019-01-12T14:58:44.446Z,3.90
2019-01-12T15:03:47.361Z,3.90
2019-01-12T15:08:50.967Z,3.90
2019-01-12T15:13:54.765Z,3.80
2019-01-12T15:18:58.407Z,3.70
2019-01-12T15:24:02.039Z,3.50
2019-01-12T15:29:05.852Z,3.40
2019-01-12T15:34:12.674Z,3.30
2019-01-12T15:39:16.613Z,3.30
2019-01-12T15:44:20.505Z,3.30
2019-01-12T15:49:24.107Z,3.30
2019-01-12T15:54:27.835Z,3.40
2019-01-12T15:59:31.554Z,3.30
2019-01-12T16:04:35.191Z,3.40
2019-01-12T16:09:39.310Z,3.40
2019-01-12T16:14:42.930Z,3.30
2019-01-12T16:19:49.486Z,3.30
2019-01-12T16:24:54.117Z,3.40
2019-01-12T16:29:57.726Z,3.50
2019-01-12T16:45:25.348Z,3.60
2019-01-12T16:50:35.006Z,3.90
2019-01-12T16:55:41.500Z,3.80
2019-01-12T17:00:45.144Z,4.00
2019-01-12T17:05:48.758Z,3.90
2019-01-12T17:10:58.019Z,3.90
2019-01-12T17:16:01.908Z,3.90
2019-01-12T17:21:08.525Z,3.80
2019-01-12T17:26:14.862Z,3.90
2019-01-12T17:31:18.538Z,4.00
2019-01-12T17:36:25.322Z,4.00
2019-01-12T17:41:38.047Z,4.00
2019-01-12T17:46:37.357Z,4.20
2019-01-12T17:51:41.247Z,4.10
2019-01-12T17:56:47.799Z,4.00
2019-01-12T18:01:51.408Z,3.90
2019-01-12T18:06:56.640Z,4.00
2019-01-12T18:12:02.172Z,3.80
2019-01-12T18:17:08.759Z,3.90
2019-01-12T18:22:12.505Z,3.90
2019-01-12T18:27:18.122Z,4.00
2019-01-12T18:32:21.810Z,4.10
2019-01-12T18:37:25.584Z,4.30
2019-01-12T18:42:30.840Z,4.10
2019-01-12T18:47:34.603Z,4.20
2019-01-12T18:52:38.235Z,4.30
2019-01-12T18:57:42.178Z,4.20
2019-01-12T19:02:46.260Z,4.10
2019-01-12T19:07:56.542Z,4.20
2019-01-12T19:13:00.189Z,4.00
2019-01-12T19:18:03.987Z,4.00
2019-01-12T19:23:07.667Z,4.00
2019-01-12T19:28:11.275Z,3.90
2019-01-12T19:33:15.210Z,3.90
2019-01-12T19:38:27.754Z,3.70
2019-01-12T19:43:33.152Z,3.70
2019-01-12T19:48:39.762Z,3.70
2019-01-12T19:53:46.094Z,3.80
2019-01-12T19:58:56.514Z,3.80
2019-01-12T20:04:00.138Z,3.70
2019-01-12T20:09:06.915Z,3.50
2019-01-12T20:14:13.738Z,3.50
2019-01-12T20:19:19.174Z,3.40
2019-01-12T20:24:25.514Z,3.40
2019-01-12T20:29:30.738Z,3.40
2019-01-12T20:34:37.222Z,3.30
2019-01-12T20:40:18.213Z,3.30
2019-01-12T20:45:36.543Z,3.30
2019-01-12T20:50:52.089Z,3.30
2019-01-12T20:56:18.155Z,3.30
2019-01-12T21:01:39.919Z,3.20
2019-01-12T21:07:05.898Z,3.10
2019-01-12T21:12:18.261Z,3.00
2019-01-12T21:17:21.908Z,3.00
2019-01-12T21:22:27.094Z,3.00
2019-01-12T21:27:36.720Z,3.00
2019-01-12T21:32:42.306Z,3.00
2019-01-12T21:37:45.590Z,3.00
2019-01-12T21:42:53.249Z,3.00
2019-01-12T21:47:59.614Z,2.90
2019-01-12T21:53:07.593Z,2.90
2019-01-12T21:58:11.215Z,2.80
2019-01-12T22:03:18.100Z,2.80
2019-01-12T22:08:21.694Z,2.80
2019-01-12T22:13:25.311Z,3.00
2019-01-12T22:18:32.384Z,3.00
2019-01-12T22:23:37.638Z,2.90
2019-01-12T22:28:41.254Z,2.90
2019-01-12T22:33:47.903Z,2.90
2019-01-12T22:38:51.516Z,2.80
2019-01-12T22:43:58.387Z,2.90
2019-01-12T22:49:01.993Z,2.80
2019-01-12T22:54:07.306Z,2.80
2019-01-12T22:59:10.929Z,2.80
2019-01-12T23:04:17.590Z,2.70
2019-01-12T23:09:27.014Z,2.70
2019-01-12T23:14:33.122Z,2.70
2019-01-12T23:19:39.194Z,2.80
2019-01-12T23:24:49.973Z,2.80
2019-01-12T23:29:53.553Z,2.80
2019-01-12T23:35:10.864Z,2.70
2019-01-12T23:40:15.021Z,2.80
2019-01-12T23:45:18.717Z,2.70
2019-01-12T23:50:25.226Z,2.70
2019-01-12T23:55:33.027Z,2.70
